Time;durP1;ratioP1;P1;durP2;ratioP2;P2;SDS_P1;SDS_P2;PMS_P1;PMS_P2;Temp;Humidity;BMP_temperature;BMP_pressure;BME280_temperature;BME280_humidity;BME280_pressure;Samples;Min_cycle;Max_cycle;Signal;HPM_P1;HPM_P2
2022/11/12 00:00:38;;;;;;;33.60;30.73;;;6.70;99.90;;;;;;4934222;29;20545;-79
2022/11/12 00:03:06;;;;;;;35.20;32.00;;;6.70;99.90;;;;;;4934121;29;20461;-79
2022/11/12 00:05:32;;;;;;;35.37;32.07;;;6.60;99.90;;;;;;4934181;29;20827;-80
2022/11/12 00:07:59;;;;;;;33.37;30.60;;;6.60;99.90;;;;;;4934324;29;20457;-81
2022/11/12 00:10:26;;;;;;;34.70;31.67;;;6.60;99.90;;;;;;4933887;29;20946;-79
2022/11/12 00:12:55;;;;;;;35.97;32.77;;;6.50;99.90;;;;;;4934103;29;20460;-79
2022/11/12 00:15:22;;;;;;;34.97;32.07;;;6.50;99.90;;;;;;4933815;29;20569;-79
2022/11/12 00:17:49;;;;;;;34.37;31.23;;;6.50;99.90;;;;;;4934189;29;20576;-81
2022/11/12 00:20:16;;;;;;;35.10;31.77;;;6.50;99.90;;;;;;4935084;29;20464;-80
2022/11/12 00:22:42;;;;;;;36.73;33.10;;;6.50;99.90;;;;;;4933754;29;20457;-80
2022/11/12 00:25:10;;;;;;;34.67;31.83;;;6.40;99.90;;;;;;4933689;29;20454;-79
2022/11/12 00:27:37;;;;;;;35.23;31.60;;;6.40;99.90;;;;;;4933076;29;20456;-80
2022/11/12 00:30:07;;;;;;;34.07;31.20;;;6.40;99.90;;;;;;4933416;29;20995;-79
2022/11/12 00:32:35;;;;;;;37.10;33.90;;;6.40;99.90;;;;;;4933716;29;20452;-80
2022/11/12 00:35:02;;;;;;;34.93;31.87;;;6.40;99.90;;;;;;4933493;29;20448;-79
2022/11/12 00:37:29;;;;;;;34.67;31.83;;;6.40;99.90;;;;;;4933289;29;20480;-80
2022/11/12 00:39:56;;;;;;;35.13;31.90;;;6.40;99.90;;;;;;4933125;29;20902;-79
2022/11/12 00:42:23;;;;;;;35.90;32.77;;;6.40;99.90;;;;;;4933148;29;20461;-79
2022/11/12 00:44:49;;;;;;;36.33;33.13;;;6.40;99.90;;;;;;4933711;29;20455;-79
2022/11/12 00:47:18;;;;;;;34.37;31.43;;;6.40;99.90;;;;;;4933173;29;20463;-79
2022/11/12 00:49:44;;;;;;;34.87;31.67;;;6.40;99.90;;;;;;4932965;29;20442;-79
2022/11/12 00:52:11;;;;;;;35.50;32.47;;;6.40;99.90;;;;;;4933031;29;20453;-80
2022/11/12 00:54:38;;;;;;;35.03;32.03;;;6.30;99.90;;;;;;4933187;29;20454;-81
2022/11/12 00:57:05;;;;;;;33.03;30.27;;;6.30;99.90;;;;;;4933381;29;20457;-81
2022/11/12 00:59:31;;;;;;;35.27;32.10;;;6.30;99.90;;;;;;4944827;29;20492;-81
2022/11/12 01:01:58;;;;;;;34.00;31.30;;;6.20;99.90;;;;;;4947155;29;20511;-78
2022/11/12 01:04:26;;;;;;;36.00;32.40;;;6.20;99.90;;;;;;4936592;29;20464;-77
2022/11/12 01:06:53;;;;;;;38.80;35.07;;;6.10;99.90;;;;;;4934102;29;20457;-77
2022/11/12 01:09:20;;;;;;;37.10;33.40;;;6.10;99.90;;;;;;4933185;29;20459;-78
2022/11/12 01:11:46;;;;;;;36.93;33.70;;;6.10;99.90;;;;;;4932407;29;20930;-78
2022/11/12 01:14:13;;;;;;;36.30;32.97;;;6.10;99.90;;;;;;4932189;29;20514;-78
2022/11/12 01:16:41;;;;;;;37.70;34.50;;;6.10;99.90;;;;;;4932413;29;20794;-77
2022/11/12 01:19:11;;;;;;;35.87;32.73;;;6.10;99.90;;;;;;4932440;29;20495;-77
2022/11/12 01:21:41;;;;;;;35.17;32.37;;;6.10;99.90;;;;;;4932695;29;20810;-78
2022/11/12 01:24:08;;;;;;;39.50;36.10;;;6.00;99.90;;;;;;4932710;29;20463;-75
2022/11/12 01:26:35;;;;;;;35.03;32.07;;;6.00;99.90;;;;;;4932530;29;20978;-79
2022/11/12 01:55:31;;;;;;;41.63;37.97;;;5.60;99.90;;;;;;5933801;23;20655;-79
2022/11/12 01:58:04;;;;;;;40.20;36.80;;;5.60;99.90;;;;;;4933993;29;20490;-78
2022/11/12 02:00:30;;;;;;;38.90;35.30;;;5.60;99.90;;;;;;4935792;29;20812;-79
2022/11/12 02:03:00;;;;;;;37.87;34.87;;;5.60;99.90;;;;;;4935598;29;20819;-78
2022/11/12 02:05:29;;;;;;;38.13;34.87;;;5.50;99.90;;;;;;4935397;29;20453;-79
2022/11/12 02:07:57;;;;;;;37.80;34.57;;;5.50;99.90;;;;;;4935388;29;20453;-79
2022/11/12 02:10:25;;;;;;;37.70;34.57;;;5.50;99.90;;;;;;4935100;29;20445;-78
2022/11/12 02:15:40;;;;;;;35.73;32.67;;;5.40;99.90;;;;;;4945389;29;20435;-78
2022/11/12 02:18:07;;;;;;;34.90;32.20;;;5.30;99.90;;;;;;4943376;29;20482;-78
2022/11/12 02:20:35;;;;;;;31.87;29.47;;;5.30;99.90;;;;;;4937370;29;20834;-77
2022/11/12 02:23:03;;;;;;;35.70;32.50;;;5.20;99.90;;;;;;4936645;29;20478;-77
2022/11/12 02:25:29;;;;;;;33.70;30.60;;;5.20;99.90;;;;;;4935381;29;20453;-78
2022/11/12 02:27:58;;;;;;;34.43;31.60;;;5.10;99.90;;;;;;4935099;29;20461;-76
2022/11/12 02:30:33;;;;;;;35.20;32.23;;;5.10;99.90;;;;;;4934960;29;20451;-75
2022/11/12 02:33:00;;;;;;;35.20;32.40;;;5.00;99.90;;;;;;4935249;29;20458;-77
2022/11/12 02:35:27;;;;;;;34.20;31.50;;;5.00;99.90;;;;;;4934784;29;20789;-76
2022/11/12 02:37:53;;;;;;;34.27;31.43;;;4.90;99.90;;;;;;4934557;29;20460;-76
2022/11/12 02:40:22;;;;;;;36.37;33.57;;;4.90;99.90;;;;;;4934550;29;20467;-75
2022/11/12 02:42:48;;;;;;;33.20;30.60;;;4.90;99.90;;;;;;4934546;29;20453;-75
2022/11/12 02:45:15;;;;;;;34.40;31.80;;;4.80;99.90;;;;;;4934971;29;20962;-77
2022/11/12 02:47:42;;;;;;;33.00;30.50;;;4.80;99.90;;;;;;4935063;29;20930;-78
2022/11/12 02:50:09;;;;;;;32.10;29.50;;;4.80;99.90;;;;;;4934283;29;20450;-78
2022/11/12 02:52:36;;;;;;;32.03;29.63;;;4.80;99.90;;;;;;4934194;29;20457;-78
2022/11/12 02:55:03;;;;;;;33.73;31.10;;;4.80;99.90;;;;;;4934458;29;20879;-78
2022/11/12 02:57:32;;;;;;;32.53;30.13;;;4.80;99.90;;;;;;4934830;29;20488;-77
2022/11/12 02:59:58;;;;;;;33.20;30.70;;;4.80;99.90;;;;;;4934566;29;20494;-77
2022/11/12 03:02:25;;;;;;;35.00;32.10;;;4.80;99.90;;;;;;4934209;29;20460;-78
2022/11/12 03:04:52;;;;;;;35.07;32.57;;;4.80;99.90;;;;;;4934220;29;20452;-77
2022/11/12 03:07:18;;;;;;;31.83;29.47;;;4.80;99.90;;;;;;4934235;29;20456;-76
2022/11/12 03:09:45;;;;;;;33.23;30.73;;;4.80;99.90;;;;;;4934371;29;20450;-76
2022/11/12 03:12:12;;;;;;;35.13;32.27;;;4.80;99.90;;;;;;4934489;29;20791;-76
2022/11/12 03:14:40;;;;;;;34.57;31.60;;;4.80;99.90;;;;;;4933972;29;20464;-76
2022/11/12 03:17:06;;;;;;;33.70;31.30;;;4.80;99.90;;;;;;4933899;29;21145;-76
2022/11/12 03:19:33;;;;;;;33.07;30.57;;;4.80;99.90;;;;;;4933860;29;20488;-77
2022/11/12 03:22:00;;;;;;;31.90;29.60;;;4.80;99.90;;;;;;4934353;29;20449;-76
2022/11/12 03:24:27;;;;;;;31.67;29.20;;;4.80;99.90;;;;;;4934184;29;20464;-76
2022/11/12 03:26:54;;;;;;;32.43;30.13;;;4.80;99.90;;;;;;4933692;29;20457;-75
2022/11/12 03:29:21;;;;;;;30.07;28.07;;;4.80;99.90;;;;;;4933959;29;20728;-77
2022/11/12 03:31:49;;;;;;;30.37;28.23;;;4.80;99.90;;;;;;4933736;29;20937;-76
2022/11/12 03:34:15;;;;;;;29.90;27.80;;;4.80;99.90;;;;;;4933917;29;20539;-75
2022/11/12 03:36:42;;;;;;;30.83;28.53;;;4.80;99.90;;;;;;4933826;29;20827;-77
2022/11/12 03:39:09;;;;;;;31.57;29.17;;;4.80;99.90;;;;;;4933392;29;20846;-76
2022/11/12 03:41:36;;;;;;;34.90;31.60;;;4.90;99.90;;;;;;4933467;29;20451;-77
2022/11/12 03:44:02;;;;;;;29.30;27.10;;;4.90;99.90;;;;;;4933560;29;20456;-76
2022/11/12 03:46:29;;;;;;;31.47;29.03;;;4.80;99.90;;;;;;4933730;29;20461;-76
2022/11/12 03:48:58;;;;;;;30.40;28.00;;;4.80;99.90;;;;;;4933580;29;20463;-76
2022/11/12 03:51:24;;;;;;;32.10;29.47;;;4.80;99.90;;;;;;4933209;29;20458;-76
2022/11/12 03:53:51;;;;;;;30.87;28.37;;;4.90;99.90;;;;;;4933245;29;20460;-76
2022/11/12 03:56:18;;;;;;;31.90;28.93;;;4.90;99.90;;;;;;4933156;29;20506;-76
2022/11/12 03:58:44;;;;;;;30.37;27.87;;;4.90;99.90;;;;;;4933531;29;20884;-75
2022/11/12 04:01:11;;;;;;;31.60;29.00;;;5.00;99.90;;;;;;4933274;29;20754;-77
2022/11/12 04:03:38;;;;;;;32.33;29.83;;;5.00;99.90;;;;;;4932049;29;20537;-77
2022/11/12 04:08:51;;;;;;;28.63;26.63;;;5.00;99.90;;;;;;4933110;29;21224;-77
2022/11/12 04:11:17;;;;;;;30.73;28.53;;;5.00;99.90;;;;;;4932846;29;20462;-75
2022/11/12 04:13:46;;;;;;;29.13;27.13;;;5.00;99.90;;;;;;4933189;29;20463;-75
2022/11/12 04:21:53;;;;;;;30.83;28.60;;;5.00;99.90;;;;;;4933415;29;20439;-81
2022/11/12 04:27:08;;;;;;;29.73;27.37;;;5.00;99.90;;;;;;4933521;29;20428;-80
2022/11/12 04:32:19;;;;;;;29.23;27.03;;;5.00;99.90;;;;;;4933209;29;20435;-81
2022/11/12 04:34:46;;;;;;;29.33;26.90;;;5.10;99.90;;;;;;4933215;29;20460;-82
2022/11/12 04:37:14;;;;;;;28.73;26.60;;;5.00;99.90;;;;;;4933538;29;20967;-81
2022/11/12 04:39:41;;;;;;;30.53;28.13;;;5.10;99.90;;;;;;4933428;29;20493;-81
2022/11/12 04:45:00;;;;;;;29.40;27.20;;;5.10;99.90;;;;;;4932980;29;20560;-81
2022/11/12 04:47:27;;;;;;;29.83;27.53;;;5.00;99.90;;;;;;4933239;29;20527;-80
2022/11/12 04:49:54;;;;;;;27.47;25.37;;;5.10;99.90;;;;;;4932980;29;20453;-80
2022/11/12 04:52:22;;;;;;;28.60;26.40;;;5.10;99.90;;;;;;4932894;29;20552;-80
2022/11/12 04:54:49;;;;;;;28.33;25.93;;;5.10;99.90;;;;;;4933005;29;20488;-80
2022/11/12 04:57:16;;;;;;;29.57;27.27;;;5.10;99.90;;;;;;4933017;29;20487;-81
2022/11/12 04:59:42;;;;;;;28.90;26.60;;;5.10;99.90;;;;;;4936107;29;20619;-80
2022/11/12 05:02:09;;;;;;;28.00;26.20;;;5.10;99.90;;;;;;4932904;29;20454;-80
2022/11/12 05:04:36;;;;;;;27.30;25.40;;;5.10;99.90;;;;;;4932410;29;21023;-77
2022/11/12 05:07:03;;;;;;;29.10;27.00;;;5.20;99.90;;;;;;4932108;29;20459;-78
2022/11/12 05:09:31;;;;;;;29.97;27.57;;;5.20;99.90;;;;;;4932406;29;20991;-76
2022/11/12 05:11:57;;;;;;;28.20;26.20;;;5.20;99.90;;;;;;4932143;29;20947;-77
2022/11/12 05:14:25;;;;;;;28.67;26.40;;;5.20;99.90;;;;;;4931724;29;20455;-76
2022/11/12 05:16:52;;;;;;;27.97;25.97;;;5.20;99.90;;;;;;4931879;29;20945;-78
2022/11/12 05:19:19;;;;;;;28.43;26.30;;;5.30;99.90;;;;;;4931992;29;20493;-78
2022/11/12 05:24:32;;;;;;;26.77;25.00;;;5.40;99.90;;;;;;4932251;29;20569;-76
2022/11/12 05:26:59;;;;;;;26.27;24.50;;;5.30;99.90;;;;;;4932254;29;20460;-76
2022/11/12 05:29:26;;;;;;;28.67;25.87;;;5.30;99.90;;;;;;4931897;29;20448;-76
2022/11/12 05:31:52;;;;;;;27.93;25.93;;;5.30;99.90;;;;;;4931684;29;20958;-76
2022/11/12 05:34:19;;;;;;;27.07;24.83;;;5.30;99.90;;;;;;4931745;29;20452;-75
2022/11/12 05:36:46;;;;;;;28.40;26.20;;;5.20;99.90;;;;;;4932081;29;20466;-77
2022/11/12 05:39:13;;;;;;;27.90;25.73;;;5.30;99.90;;;;;;4931984;29;20494;-76
2022/11/12 05:41:41;;;;;;;27.30;25.30;;;5.20;99.90;;;;;;4931691;29;20459;-74
2022/11/12 05:44:07;;;;;;;26.93;25.00;;;5.20;99.90;;;;;;4931593;29;20461;-74
2022/11/12 05:46:34;;;;;;;25.73;23.73;;;5.20;99.90;;;;;;4931671;29;20940;-74
2022/11/12 05:49:01;;;;;;;28.17;26.03;;;5.20;99.90;;;;;;4932057;29;20983;-75
2022/11/12 05:51:28;;;;;;;26.03;24.13;;;5.20;99.90;;;;;;4931882;29;20444;-74
2022/11/12 05:53:54;;;;;;;27.57;25.47;;;5.20;99.90;;;;;;4931380;29;20462;-76
2022/11/12 05:56:21;;;;;;;27.40;25.40;;;5.20;99.90;;;;;;4931404;29;20492;-77
2022/11/12 06:01:25;;;;;;;27.43;25.40;;;5.00;99.90;;;;;;5865870;23;20821;-76
2022/11/12 06:03:51;;;;;;;25.83;23.93;;;5.10;99.90;;;;;;4950838;28;20456;-76
2022/11/12 06:06:18;;;;;;;25.90;23.57;;;5.10;99.90;;;;;;4950797;28;20461;-77
2022/11/12 06:08:45;;;;;;;24.50;22.90;;;5.10;99.90;;;;;;4950800;28;20466;-77
2022/11/12 06:11:12;;;;;;;25.40;23.60;;;5.10;99.90;;;;;;4951043;28;20463;-78
2022/11/12 06:13:39;;;;;;;25.73;23.73;;;5.10;99.90;;;;;;4950933;28;20463;-78
2022/11/12 06:16:06;;;;;;;25.63;23.73;;;5.10;99.90;;;;;;4950693;28;20460;-78
2022/11/12 06:18:34;;;;;;;26.40;24.13;;;5.10;99.90;;;;;;4950595;28;20456;-79
2022/11/12 06:21:21;;;;;;;25.37;23.37;;;5.10;99.90;;;;;;4950857;28;20514;-78
2022/11/12 06:23:51;;;;;;;25.80;23.90;;;5.10;99.90;;;;;;4950809;28;20492;-78
2022/11/12 06:26:18;;;;;;;28.47;25.47;;;5.10;99.90;;;;;;4952105;28;20452;-77
2022/11/12 06:28:45;;;;;;;26.40;24.10;;;5.10;99.90;;;;;;4954307;28;20448;-78
2022/11/12 06:31:12;;;;;;;25.70;23.90;;;5.10;99.90;;;;;;4954390;28;20448;-78
2022/11/12 06:33:40;;;;;;;28.80;24.40;;;5.10;99.90;;;;;;4954177;28;20463;-79
2022/11/12 06:36:08;;;;;;;24.93;23.13;;;5.20;99.90;;;;;;4954173;29;20461;-78
2022/11/12 06:38:38;;;;;;;25.57;23.40;;;5.20;99.90;;;;;;4954133;29;20894;-79
2022/11/12 06:41:07;;;;;;;26.03;24.03;;;5.20;99.90;;;;;;4954058;29;20858;-78
2022/11/12 06:43:34;;;;;;;27.03;25.10;;;5.20;99.90;;;;;;4954055;29;20482;-79
2022/11/12 06:46:02;;;;;;;27.40;25.20;;;5.20;99.90;;;;;;4953744;29;20556;-79
2022/11/12 06:48:29;;;;;;;28.60;26.30;;;5.20;99.90;;;;;;4954202;29;20978;-79
2022/11/12 06:50:58;;;;;;;27.77;25.30;;;5.30;99.90;;;;;;4954752;29;20452;-79
2022/11/12 06:53:24;;;;;;;26.70;24.60;;;5.20;99.90;;;;;;4954785;29;20460;-80
2022/11/12 06:55:51;;;;;;;25.30;23.60;;;5.20;99.90;;;;;;4954557;29;20509;-79
2022/11/12 06:58:18;;;;;;;25.27;23.33;;;5.30;99.90;;;;;;4954401;29;20454;-79
2022/11/12 07:00:45;;;;;;;24.73;22.83;;;5.30;99.90;;;;;;4954102;29;20517;-78
2022/11/12 07:03:13;;;;;;;28.10;25.80;;;5.20;99.90;;;;;;4954426;29;20511;-79
2022/11/12 07:05:40;;;;;;;27.17;24.60;;;5.20;99.90;;;;;;4954498;29;20448;-79
2022/11/12 07:08:09;;;;;;;25.60;23.80;;;5.30;99.90;;;;;;4954400;29;20459;-79
2022/11/12 07:10:36;;;;;;;24.97;22.97;;;5.30;99.90;;;;;;4954179;29;20450;-78
2022/11/12 07:13:02;;;;;;;26.90;24.70;;;5.30;99.90;;;;;;4951604;28;21002;-78
2022/11/12 07:15:29;;;;;;;28.23;26.07;;;5.40;99.90;;;;;;4953604;28;20446;-78
2022/11/12 07:17:56;;;;;;;27.57;25.47;;;5.50;99.90;;;;;;4952637;28;20471;-77
2022/11/12 07:20:22;;;;;;;27.37;25.13;;;5.50;99.90;;;;;;4953621;29;20474;-78
2022/11/12 07:22:49;;;;;;;28.77;26.40;;;5.50;99.90;;;;;;4953141;28;20478;-77
2022/11/12 07:25:17;;;;;;;26.03;24.10;;;5.60;99.90;;;;;;4953404;28;20467;-77
2022/11/12 07:27:44;;;;;;;24.50;22.63;;;5.60;99.90;;;;;;4953374;28;20479;-77
2022/11/12 07:30:12;;;;;;;24.30;22.53;;;5.60;99.90;;;;;;4953569;29;20544;-77
2022/11/12 07:32:38;;;;;;;26.07;24.07;;;5.60;99.90;;;;;;4953760;29;20458;-77
2022/11/12 07:35:06;;;;;;;26.70;24.63;;;5.60;99.90;;;;;;4953188;29;20467;-77
2022/11/12 07:37:34;;;;;;;26.20;24.30;;;5.60;99.90;;;;;;4953940;28;20454;-79
2022/11/12 07:40:02;;;;;;;25.17;22.80;;;5.70;99.90;;;;;;4954568;28;20713;-79
2022/11/12 07:42:33;;;;;;;24.47;22.67;;;5.70;99.90;;;;;;4954762;28;21038;-80
2022/11/12 07:45:00;;;;;;;26.40;24.30;;;5.70;99.90;;;;;;4953826;28;20467;-78
2022/11/12 07:47:27;;;;;;;26.80;24.80;;;5.80;99.90;;;;;;4953338;28;20457;-80
2022/11/12 07:49:54;;;;;;;25.10;23.20;;;5.70;99.90;;;;;;4953660;28;20447;-80
2022/11/12 07:52:21;;;;;;;24.40;22.73;;;5.80;99.90;;;;;;4953322;28;20957;-81
2022/11/12 07:54:48;;;;;;;25.57;23.50;;;5.80;99.90;;;;;;4969107;29;20459;-79
2022/11/12 07:57:15;;;;;;;22.77;21.27;;;5.70;99.90;;;;;;4971100;29;20451;-78
2022/11/12 07:59:43;;;;;;;24.57;22.77;;;5.90;99.90;;;;;;4971924;29;20483;-81
2022/11/12 08:02:10;;;;;;;23.47;21.77;;;5.60;99.90;;;;;;4968975;29;20510;-81
2022/11/12 08:04:36;;;;;;;24.30;22.20;;;5.70;99.90;;;;;;4953997;28;20471;-79
2022/11/12 08:07:04;;;;;;;22.70;21.20;;;5.70;99.90;;;;;;4954456;28;20460;-81
2022/11/12 08:09:30;;;;;;;23.07;21.57;;;5.70;99.90;;;;;;4951767;28;20478;-79
2022/11/12 08:11:57;;;;;;;22.77;21.07;;;5.80;99.90;;;;;;4953921;28;20454;-82
2022/11/12 08:14:24;;;;;;;24.30;22.60;;;5.80;99.90;;;;;;4951714;28;21007;-80
2022/11/12 08:16:52;;;;;;;24.33;22.40;;;5.80;99.90;;;;;;4953426;28;20482;-79
2022/11/12 08:19:19;;;;;;;25.13;23.10;;;6.00;99.90;;;;;;4953630;28;20525;-82
2022/11/12 08:21:46;;;;;;;24.30;22.50;;;6.00;99.90;;;;;;4953361;28;20495;-80
2022/11/12 08:24:13;;;;;;;21.60;20.17;;;6.00;99.90;;;;;;4953246;29;20445;-80
2022/11/12 08:26:39;;;;;;;22.27;20.80;;;6.20;99.90;;;;;;4953502;29;20459;-81
2022/11/12 08:29:06;;;;;;;22.20;20.70;;;6.30;99.90;;;;;;4953304;29;20466;-83
2022/11/12 08:31:33;;;;;;;23.20;21.40;;;6.40;99.90;;;;;;4953105;28;20945;-82
2022/11/12 08:34:10;;;;;;;23.43;21.57;;;6.30;99.90;;;;;;4952937;28;20454;-83
2022/11/12 08:36:39;;;;;;;22.87;21.20;;;6.40;99.90;;;;;;4953345;28;20543;-84
2022/11/12 08:39:06;;;;;;;22.90;21.30;;;6.40;99.90;;;;;;4952015;28;20468;-85
2022/11/12 08:41:34;;;;;;;20.37;18.97;;;6.40;99.90;;;;;;4951054;28;20488;-85
2022/11/12 08:44:01;;;;;;;22.03;20.40;;;6.50;99.90;;;;;;4952862;28;20448;-83
2022/11/12 08:46:28;;;;;;;21.60;20.03;;;6.40;99.90;;;;;;4953218;28;20467;-86
2022/11/12 08:48:54;;;;;;;24.27;22.27;;;6.50;99.90;;;;;;4953516;28;20950;-85
2022/11/12 08:51:23;;;;;;;21.30;19.73;;;6.50;99.90;;;;;;4953484;28;20450;-87
2022/11/12 08:53:50;;;;;;;21.93;20.53;;;6.60;99.90;;;;;;4954939;28;20482;-86
2022/11/12 08:56:16;;;;;;;23.83;21.80;;;6.60;99.90;;;;;;4954455;28;20491;-85
2022/11/12 08:58:43;;;;;;;21.27;19.93;;;6.60;99.90;;;;;;4953921;28;20456;-86
2022/11/12 09:01:10;;;;;;;21.33;19.83;;;6.70;99.90;;;;;;4953703;29;20511;-84
2022/11/12 09:03:37;;;;;;;23.00;20.90;;;6.70;99.90;;;;;;4941482;29;20477;-84
2022/11/12 09:06:05;;;;;;;22.55;20.85;;;6.90;99.90;;;;;;4933291;29;20460;-82
2022/11/12 09:08:35;;;;;;;22.50;20.87;;;7.00;99.90;;;;;;4933561;29;20618;-84
2022/11/12 09:11:02;;;;;;;24.30;22.47;;;7.10;99.90;;;;;;4933658;29;20459;-83
2022/11/12 09:13:29;;;;;;;22.80;20.97;;;7.20;99.90;;;;;;4933658;29;20460;-84
2022/11/12 09:16:00;;;;;;;22.00;20.60;;;7.40;99.90;;;;;;4942493;29;20517;-82
2022/11/12 09:18:27;;;;;;;21.93;20.53;;;7.50;99.90;;;;;;4957277;29;20480;-81
2022/11/12 09:20:54;;;;;;;20.30;18.90;;;7.50;99.90;;;;;;4952979;29;20507;-81
2022/11/12 09:23:21;;;;;;;20.47;19.13;;;7.40;99.90;;;;;;4952553;28;21235;-79
2022/11/12 09:25:49;;;;;;;21.53;20.00;;;7.70;99.90;;;;;;4952245;28;20853;-79
2022/11/12 09:28:18;;;;;;;19.17;17.90;;;7.90;99.90;;;;;;4952481;28;20651;-80
2022/11/12 09:30:46;;;;;;;18.23;17.00;;;8.10;99.90;;;;;;4951957;28;20513;-80
2022/11/12 09:33:13;;;;;;;18.30;17.20;;;8.40;99.90;;;;;;4952508;28;20472;-79
2022/11/12 09:35:40;;;;;;;16.87;15.87;;;8.70;99.90;;;;;;4952415;28;20946;-79
2022/11/12 09:38:06;;;;;;;17.73;16.43;;;8.90;99.90;;;;;;4952552;28;20895;-81
2022/11/12 09:40:46;;;;;;;18.80;17.70;;;9.10;99.90;;;;;;4951810;28;20492;-83
2022/11/12 09:43:22;;;;;;;16.40;15.47;;;9.40;99.90;;;;;;4952326;28;20459;-81
2022/11/12 09:45:50;;;;;;;17.63;16.40;;;9.70;99.90;;;;;;4952272;28;20547;-79
2022/11/12 09:48:21;;;;;;;17.33;16.33;;;9.70;99.90;;;;;;4952495;28;20729;-81
2022/11/12 09:50:58;;;;;;;17.97;16.73;;;9.90;99.90;;;;;;4952285;29;20919;-80
2022/11/12 09:53:32;;;;;;;17.60;16.53;;;10.00;99.90;;;;;;4952373;29;20452;-80
2022/11/12 09:56:00;;;;;;;18.77;17.53;;;10.00;99.90;;;;;;4952273;29;20480;-79
2022/11/12 09:58:28;;;;;;;18.87;17.57;;;10.00;99.90;;;;;;4952099;29;20819;-79
2022/11/12 10:00:57;;;;;;;18.27;17.13;;;9.90;99.90;;;;;;4952845;28;20490;-79
2022/11/12 10:03:35;;;;;;;17.30;16.30;;;9.60;99.90;;;;;;4955879;29;20495;-80
2022/11/12 10:06:08;;;;;;;19.07;17.90;;;9.70;99.90;;;;;;4955875;29;20997;-80
2022/11/12 10:08:41;;;;;;;17.53;16.20;;;9.70;99.90;;;;;;4955612;29;20464;-81
2022/11/12 10:12:30;;;;;;;16.93;15.97;;;9.80;99.90;;;;;;4955948;29;20440;-80
2022/11/12 10:14:32;;;;;;;18.17;17.07;;;9.80;99.90;;;;;;4955553;29;20448;-80
2022/11/12 10:17:08;;;;;;;19.43;17.97;;;9.90;99.90;;;;;;4955599;29;20452;-80
2022/11/12 10:19:49;;;;;;;17.90;16.80;;;10.10;99.90;;;;;;4955734;29;20448;-82
2022/11/12 10:22:32;;;;;;;18.57;17.47;;;10.30;99.90;;;;;;4955517;28;20484;-80
2022/11/12 10:25:09;;;;;;;16.10;15.20;;;10.40;99.90;;;;;;4955223;28;20463;-82
2022/11/12 10:27:40;;;;;;;18.10;17.00;;;10.60;99.90;;;;;;4955796;28;20448;-83
2022/11/12 10:30:15;;;;;;;17.83;16.60;;;11.00;99.90;;;;;;4955368;28;20453;-81
2022/11/12 10:32:44;;;;;;;18.30;16.87;;;11.10;99.90;;;;;;4955273;28;20826;-82
2022/11/12 10:35:12;;;;;;;18.50;17.40;;;11.20;99.90;;;;;;4955214;28;20826;-81
2022/11/12 10:37:46;;;;;;;17.47;16.40;;;11.50;99.90;;;;;;4948253;28;20457;-80
2022/11/12 10:40:33;;;;;;;16.50;15.60;;;11.70;99.90;;;;;;4955038;28;20449;-80
2022/11/12 10:43:01;;;;;;;16.63;15.60;;;11.90;99.90;;;;;;4954796;29;20957;-80
2022/11/12 10:45:30;;;;;;;18.70;17.50;;;11.90;99.90;;;;;;4962733;28;20946;-79
2022/11/12 10:47:57;;;;;;;18.63;17.50;;;11.60;99.90;;;;;;4955412;29;20896;-80
2022/11/12 10:50:28;;;;;;;18.40;17.40;;;11.70;99.90;;;;;;4955503;28;20452;-80
2022/11/12 10:52:58;;;;;;;17.37;16.17;;;12.00;99.90;;;;;;4955328;28;20456;-80
2022/11/12 10:55:27;;;;;;;17.63;16.63;;;12.10;99.90;;;;;;4954907;28;20455;-79
2022/11/12 10:58:18;;;;;;;18.03;17.03;;;12.00;99.90;;;;;;4954052;28;20461;-79
2022/11/12 11:01:13;;;;;;;16.87;15.90;;;12.60;99.90;;;;;;4953647;29;20480;-79
2022/11/12 11:03:47;;;;;;;16.93;15.83;;;13.50;99.90;;;;;;4933242;29;20476;-79
2022/11/12 11:06:22;;;;;;;16.60;15.70;;;13.90;99.90;;;;;;4944933;29;20445;-80
2022/11/12 11:08:50;;;;;;;17.33;16.33;;;14.50;99.90;;;;;;4955136;29;20452;-80
2022/11/12 11:11:24;;;;;;;16.30;15.40;;;14.30;99.90;;;;;;4954344;28;20920;-80
2022/11/12 11:13:52;;;;;;;17.03;16.10;;;14.00;99.90;;;;;;4954772;29;20472;-79
2022/11/12 11:16:21;;;;;;;17.87;16.87;;;14.10;99.90;;;;;;4954723;29;20449;-79
2022/11/12 11:18:52;;;;;;;17.43;16.50;;;13.90;99.90;;;;;;4954597;29;20460;-80
2022/11/12 11:21:57;;;;;;;17.77;16.73;;;14.20;99.90;;;;;;4954677;29;20488;-80
2022/11/12 11:24:39;;;;;;;16.30;15.40;;;14.50;99.90;;;;;;4895128;29;20459;-79
2022/11/12 11:27:22;;;;;;;17.27;16.17;;;14.10;99.90;;;;;;4946286;29;20441;-78
2022/11/12 11:30:04;;;;;;;16.50;15.60;;;14.10;99.90;;;;;;4954336;29;20464;-78
2022/11/12 11:32:51;;;;;;;14.50;13.80;;;14.10;99.90;;;;;;4954082;28;20451;-79
2022/11/12 11:35:26;;;;;;;17.23;16.23;;;14.00;99.90;;;;;;4953928;28;20449;-79
2022/11/12 11:38:15;;;;;;;15.53;14.33;;;14.20;99.90;;;;;;4955073;28;20474;-89
2022/11/12 11:40:51;;;;;;;14.57;13.70;;;14.50;99.90;;;;;;4967679;28;20460;-89
2022/11/12 11:43:56;;;;;;;16.23;15.30;;;14.70;99.90;;;;;;4964640;28;20424;-87
2022/11/12 11:54:12;;;;;;;15.37;14.57;;;15.80;99.90;;;;;;4853616;29;20913;-91
2022/11/12 12:14:21;;;;;;;16.57;15.67;;;15.70;99.90;;;;;;4971644;23;20492;-79
2022/11/12 12:17:04;;;;;;;14.87;13.90;;;16.60;99.90;;;;;;4953207;29;20460;-80
2022/11/12 12:19:56;;;;;;;14.80;14.03;;;16.30;99.90;;;;;;4953465;28;20453;-78
2022/11/12 12:22:32;;;;;;;15.83;14.87;;;16.70;99.90;;;;;;4953245;28;20492;-80
2022/11/12 12:25:07;;;;;;;17.17;15.97;;;16.20;99.90;;;;;;4952441;28;20799;-79
2022/11/12 12:27:37;;;;;;;15.63;14.63;;;16.70;99.90;;;;;;4953190;29;20448;-82
2022/11/12 12:30:14;;;;;;;16.90;16.00;;;17.00;99.40;;;;;;4952890;28;20463;-80
2022/11/12 12:32:45;;;;;;;17.13;15.90;;;17.40;98.90;;;;;;4952751;28;20451;-77
2022/11/12 12:35:19;;;;;;;15.73;14.83;;;17.10;99.90;;;;;;4952893;28;20459;-77
2022/11/12 12:37:52;;;;;;;15.40;14.50;;;17.30;99.60;;;;;;4952611;28;20452;-79
2022/11/12 12:40:23;;;;;;;15.80;14.87;;;17.70;97.60;;;;;;4952431;28;20456;-78
2022/11/12 12:42:57;;;;;;;15.47;14.53;;;17.60;97.90;;;;;;4952476;28;20496;-78
2022/11/12 12:45:34;;;;;;;16.07;15.17;;;17.40;97.20;;;;;;4952753;28;20464;-79
2022/11/12 12:48:04;;;;;;;16.90;16.00;;;17.30;98.30;;;;;;4932904;29;21013;-79
2022/11/12 12:50:32;;;;;;;18.17;17.17;;;16.80;99.10;;;;;;4932902;29;20995;-79
2022/11/12 12:53:00;;;;;;;16.70;15.90;;;16.70;99.90;;;;;;4933381;29;20445;-79
2022/11/12 12:55:36;;;;;;;16.47;15.57;;;16.60;99.80;;;;;;4949241;29;20970;-78
2022/11/12 12:58:03;;;;;;;16.40;15.50;;;16.60;99.90;;;;;;4933249;29;20860;-77
2022/11/12 13:00:38;;;;;;;15.90;14.87;;;15.80;99.90;;;;;;4933029;29;20496;-78
2022/11/12 13:03:05;;;;;;;16.30;15.40;;;15.90;99.90;;;;;;4932941;29;20468;-78
2022/11/12 13:05:34;;;;;;;15.57;14.57;;;15.70;99.90;;;;;;4950793;28;20445;-78
2022/11/12 13:08:05;;;;;;;15.87;14.97;;;15.70;99.90;;;;;;4952216;28;20459;-78
2022/11/12 13:10:53;;;;;;;16.90;16.00;;;15.70;99.90;;;;;;4952417;29;20523;-79
2022/11/12 13:13:27;;;;;;;16.20;15.30;;;15.40;99.90;;;;;;4950208;28;20496;-79
2022/11/12 13:15:57;;;;;;;16.60;15.70;;;15.50;99.90;;;;;;4952502;28;20466;-79
2022/11/12 13:18:59;;;;;;;16.83;15.73;;;15.40;99.90;;;;;;4952637;28;20451;-79
2022/11/12 13:21:25;;;;;;;15.30;14.40;;;15.40;99.90;;;;;;4952244;28;20566;-79
2022/11/12 13:24:06;;;;;;;16.37;15.40;;;15.30;99.90;;;;;;4952293;28;20465;-78
2022/11/12 13:26:53;;;;;;;16.70;15.60;;;15.20;99.90;;;;;;4952286;28;20908;-78
2022/11/12 13:29:45;;;;;;;15.57;14.37;;;15.40;99.90;;;;;;4952152;28;20455;-79
2022/11/12 13:32:32;;;;;;;14.70;14.00;;;15.70;99.90;;;;;;4952353;28;20451;-78
2022/11/12 13:35:33;;;;;;;16.00;15.00;;;15.50;99.90;;;;;;4954023;28;20451;-78
2022/11/12 13:38:04;;;;;;;17.30;16.10;;;15.00;99.90;;;;;;4926703;28;20472;-78
2022/11/12 13:40:51;;;;;;;15.40;14.60;;;15.00;99.90;;;;;;4958994;28;20456;-79
2022/11/12 13:43:31;;;;;;;16.90;15.90;;;14.90;99.90;;;;;;4958910;28;20445;-78
2022/11/12 13:46:09;;;;;;;16.67;15.63;;;15.10;99.90;;;;;;4958741;28;20443;-78
2022/11/12 13:48:41;;;;;;;16.60;15.50;;;15.20;99.90;;;;;;4958137;29;20448;-79
2022/11/12 13:51:15;;;;;;;17.17;16.07;;;15.70;99.90;;;;;;4957999;29;20503;-79
2022/11/12 13:53:42;;;;;;;16.00;15.10;;;14.90;99.90;;;;;;4954492;28;20956;-79
2022/11/12 13:56:10;;;;;;;16.03;15.10;;;14.80;99.90;;;;;;4947137;28;20495;-78
2022/11/12 13:58:39;;;;;;;18.73;17.33;;;14.80;99.90;;;;;;4945770;28;20440;-78
2022/11/12 14:01:07;;;;;;;16.30;15.40;;;14.60;99.90;;;;;;4953487;28;20491;-78
2022/11/12 14:03:42;;;;;;;16.70;15.53;;;14.60;99.90;;;;;;4958017;28;20455;-78